createdAt,value
2017-05-02T00:00:01.576Z,3.42
2017-05-02T00:00:06.050Z,3.43
2017-05-02T00:00:10.241Z,3.42
2017-05-02T00:00:14.667Z,3.42
2017-05-02T00:00:19.108Z,3.42
2017-05-02T00:00:23.537Z,3.42
2017-05-02T00:00:27.965Z,3.42
2017-05-02T00:00:32.282Z,3.42
2017-05-02T00:00:36.595Z,3.41
2017-05-02T00:00:40.784Z,3.42
2017-05-02T00:00:45.215Z,3.42
2017-05-02T00:00:49.409Z,3.42
2017-05-02T00:00:53.872Z,3.4
2017-05-02T00:00:58.312Z,3.41
2017-05-02T00:01:02.736Z,3.4
2017-05-02T00:01:07.163Z,3.41
2017-05-02T00:01:11.603Z,3.41
2017-05-02T00:01:16.031Z,3.4
2017-05-02T00:01:20.340Z,3.41
2017-05-02T00:01:24.767Z,3.41
2017-05-02T00:01:29.209Z,3.4
2017-05-02T00:01:33.638Z,3.4
2017-05-02T00:01:37.944Z,3.4
2017-05-02T00:01:42.133Z,3.4
2017-05-02T00:01:46.598Z,3.4
2017-05-02T00:01:51.028Z,3.39
2017-05-02T00:01:55.453Z,3.39
2017-05-02T00:01:59.880Z,3.39
2017-05-02T00:02:04.196Z,3.39
2017-05-02T00:02:08.506Z,3.38
2017-05-02T00:02:12.813Z,3.39
2017-05-02T00:02:17.121Z,3.39
2017-05-02T00:02:21.551Z,3.39
2017-05-02T00:02:25.976Z,3.38
2017-05-02T00:02:30.399Z,3.38
2017-05-02T00:02:34.725Z,3.39
2017-05-02T00:02:39.048Z,3.39
2017-05-02T00:02:43.364Z,3.39
2017-05-02T00:02:47.793Z,3.39
2017-05-02T00:02:52.109Z,3.39
2017-05-02T00:02:56.549Z,3.39
2017-05-02T00:03:00.980Z,3.38
2017-05-02T00:03:05.414Z,3.39
2017-05-02T00:03:09.840Z,3.39
2017-05-02T00:03:14.161Z,3.38
2017-05-02T00:03:18.597Z,3.39
2017-05-02T00:03:23.032Z,3.38
2017-05-02T00:03:27.465Z,3.38
2017-05-02T00:03:31.781Z,3.39
2017-05-02T00:03:36.213Z,3.37
2017-05-02T00:03:40.523Z,3.38
2017-05-02T00:03:44.836Z,3.38
2017-05-02T00:03:49.150Z,3.38
2017-05-02T00:03:53.591Z,3.37
2017-05-02T00:03:58.032Z,3.38
2017-05-02T00:04:02.561Z,3.38
2017-05-02T00:04:06.884Z,3.37
2017-05-02T00:04:11.314Z,3.37
2017-05-02T00:04:15.510Z,3.38
2017-05-02T00:04:19.939Z,3.36
2017-05-02T00:04:24.135Z,3.36
2017-05-02T00:04:28.608Z,3.36
2017-05-02T00:04:33.032Z,3.36
2017-05-02T00:04:37.465Z,3.37
2017-05-02T00:04:41.770Z,3.37
2017-05-02T00:04:46.210Z,3.36
2017-05-02T00:04:50.402Z,3.37
2017-05-02T00:04:54.831Z,3.37
2017-05-02T00:04:59.264Z,3.38
2017-05-02T00:05:03.579Z,3.37
2017-05-02T00:05:07.883Z,3.38
2017-05-02T00:05:12.199Z,3.37
2017-05-02T00:05:16.507Z,3.38
2017-05-02T00:05:20.700Z,3.37
2017-05-02T00:05:25.151Z,3.38
2017-05-02T00:05:29.572Z,3.38
2017-05-02T00:05:33.890Z,3.37
2017-05-02T00:05:38.318Z,3.37
2017-05-02T00:05:42.556Z,3.37
2017-05-02T00:05:46.982Z,3.38
2017-05-02T00:05:51.415Z,3.37
2017-05-02T00:05:55.841Z,3.38
2017-05-02T00:06:00.275Z,3.38
2017-05-02T00:06:04.633Z,3.38
2017-05-02T00:06:08.827Z,3.36
2017-05-02T00:06:13.138Z,3.38
2017-05-02T00:06:17.456Z,3.37
2017-05-02T00:06:21.762Z,3.36
2017-05-02T00:06:26.192Z,3.37
2017-05-02T00:06:30.627Z,3.37
2017-05-02T00:06:34.938Z,3.36
2017-05-02T00:06:39.368Z,3.37
2017-05-02T00:06:43.680Z,3.37
2017-05-02T00:06:48.008Z,3.37
2017-05-02T00:06:52.439Z,3.37
2017-05-02T00:06:56.873Z,3.37
2017-05-02T00:07:01.300Z,3.36
2017-05-02T00:07:05.737Z,3.37
2017-05-02T00:07:10.049Z,3.37
2017-05-02T00:07:14.237Z,3.36
2017-05-02T00:07:18.667Z,3.38
2017-05-02T00:07:23.099Z,3.37
2017-05-02T00:07:27.524Z,3.36
2017-05-02T00:07:31.965Z,3.37
2017-05-02T00:07:36.284Z,3.38
2017-05-02T00:07:40.738Z,3.38
2017-05-02T00:07:45.167Z,3.37
2017-05-02T00:07:49.491Z,3.38
2017-05-02T00:07:53.918Z,3.38
2017-05-02T00:07:58.367Z,3.38
2017-05-02T00:08:02.676Z,3.38
2017-05-02T00:08:06.989Z,3.38
2017-05-02T00:08:11.415Z,3.39
2017-05-02T00:08:15.738Z,3.38
2017-05-02T00:08:20.210Z,3.38
2017-05-02T00:08:24.654Z,3.39
2017-05-02T00:08:29.091Z,3.39
2017-05-02T00:08:33.540Z,3.38
2017-05-02T00:08:37.976Z,3.38
2017-05-02T00:08:42.410Z,3.38
2017-05-02T00:08:46.724Z,3.37
2017-05-02T00:08:51.163Z,3.38
2017-05-02T00:08:55.598Z,3.38
2017-05-02T00:09:00.032Z,3.38
2017-05-02T00:09:04.456Z,3.38
2017-05-02T00:09:08.773Z,3.38
2017-05-02T00:09:13.252Z,3.39
2017-05-02T00:09:17.686Z,3.39
2017-05-02T00:09:22.111Z,3.39
2017-05-02T00:09:26.546Z,3.38
2017-05-02T00:09:30.975Z,3.39
2017-05-02T00:09:35.277Z,3.39
2017-05-02T00:09:39.588Z,3.38
2017-05-02T00:09:44.023Z,3.38
2017-05-02T00:09:48.327Z,3.38
2017-05-02T00:09:52.750Z,3.38
2017-05-02T00:09:57.063Z,3.38
2017-05-02T00:10:01.505Z,3.38
2017-05-02T00:10:05.699Z,3.38
2017-05-02T00:10:09.893Z,3.38
2017-05-02T00:10:14.328Z,3.38
2017-05-02T00:10:18.756Z,3.37
2017-05-02T00:10:23.179Z,3.37
2017-05-02T00:10:27.624Z,3.37
2017-05-02T00:10:31.938Z,3.38
2017-05-02T00:10:36.257Z,3.37
2017-05-02T00:10:40.562Z,3.37
2017-05-02T00:10:44.992Z,3.38
2017-05-02T00:10:49.189Z,3.36
2017-05-02T00:10:53.617Z,3.37
2017-05-02T00:10:57.923Z,3.36
2017-05-02T00:11:02.402Z,3.37
2017-05-02T00:11:06.716Z,3.37
2017-05-02T00:11:11.142Z,3.37
2017-05-02T00:11:15.454Z,3.37
2017-05-02T00:11:19.897Z,3.36
2017-05-02T00:11:24.325Z,3.36
2017-05-02T00:11:28.759Z,3.36
2017-05-02T00:11:33.196Z,3.36
2017-05-02T00:11:37.516Z,3.37
2017-05-02T00:11:41.946Z,3.37
2017-05-02T00:11:46.375Z,3.36
2017-05-02T00:11:50.577Z,3.36
2017-05-02T00:11:54.885Z,3.35
2017-05-02T00:11:59.318Z,3.35
2017-05-02T00:12:03.744Z,3.35
2017-05-02T00:12:08.060Z,3.35
2017-05-02T00:12:12.467Z,3.35
2017-05-02T00:12:16.655Z,3.36
2017-05-02T00:12:21.080Z,3.35
2017-05-02T00:12:25.517Z,3.35
2017-05-02T00:12:29.952Z,3.35
2017-05-02T00:12:34.374Z,3.35
2017-05-02T00:12:38.694Z,3.35
2017-05-02T00:12:43.133Z,3.35
2017-05-02T00:12:47.331Z,3.35
2017-05-02T00:12:51.762Z,3.35
2017-05-02T00:12:56.070Z,3.35
2017-05-02T00:13:00.500Z,3.35
2017-05-02T00:13:04.940Z,3.35
2017-05-02T00:13:09.257Z,3.35
2017-05-02T00:13:13.574Z,3.35
2017-05-02T00:13:18.009Z,3.35
2017-05-02T00:13:22.442Z,3.35
2017-05-02T00:13:26.893Z,3.35
2017-05-02T00:13:31.334Z,3.36
2017-05-02T00:13:35.769Z,3.36
2017-05-02T00:13:40.018Z,3.36
2017-05-02T00:13:44.337Z,3.36
2017-05-02T00:13:48.774Z,3.36
2017-05-02T00:13:53.086Z,3.36
2017-05-02T00:13:57.521Z,3.36
2017-05-02T00:14:01.934Z,3.36
2017-05-02T00:14:06.368Z,3.36
2017-05-02T00:14:10.570Z,3.37
2017-05-02T00:14:14.807Z,3.37
2017-05-02T00:14:19.259Z,3.36
2017-05-02T00:14:23.692Z,3.38
2017-05-02T00:14:28.004Z,3.37
2017-05-02T00:14:32.432Z,3.37
2017-05-02T00:14:36.873Z,3.38
2017-05-02T00:14:41.305Z,3.37
2017-05-02T00:14:45.738Z,3.38
2017-05-02T00:14:50.049Z,3.38
2017-05-02T00:14:54.479Z,3.38
2017-05-02T00:14:58.802Z,3.37
2017-05-02T00:15:03.267Z,3.38
2017-05-02T00:15:07.581Z,3.39
2017-05-02T00:15:12.012Z,3.38
2017-05-02T00:15:16.325Z,3.36
2017-05-02T00:15:20.749Z,3.36
2017-05-02T00:15:25.176Z,3.37
2017-05-02T00:15:29.617Z,3.36
2017-05-02T00:15:34.073Z,3.36
2017-05-02T00:15:38.382Z,3.36
2017-05-02T00:15:42.805Z,3.37
2017-05-02T00:15:47.231Z,3.36
2017-05-02T00:15:51.590Z,3.35
2017-05-02T00:15:55.895Z,3.36
2017-05-02T00:16:00.208Z,3.36
2017-05-02T00:16:04.808Z,3.35
2017-05-02T00:16:09.126Z,3.36
2017-05-02T00:16:13.439Z,3.35
2017-05-02T00:16:17.870Z,3.35
2017-05-02T00:16:22.297Z,3.35
2017-05-02T00:16:26.485Z,3.35
2017-05-02T00:16:30.912Z,3.36
2017-05-02T00:16:35.345Z,3.34
2017-05-02T00:16:39.771Z,3.35
2017-05-02T00:16:44.211Z,3.35
2017-05-02T00:16:48.642Z,3.35
2017-05-02T00:16:52.962Z,3.35
2017-05-02T00:16:57.153Z,3.36
2017-05-02T00:17:01.827Z,3.35
2017-05-02T00:17:06.268Z,3.35
2017-05-02T00:17:10.706Z,3.35
2017-05-02T00:17:14.902Z,3.36
2017-05-02T00:17:18.974Z,3.36
2017-05-02T00:17:23.404Z,3.36
2017-05-02T00:17:27.835Z,3.35
2017-05-02T00:17:32.259Z,3.35
2017-05-02T00:17:36.577Z,3.36
2017-05-02T00:17:40.905Z,3.35
2017-05-02T00:17:45.356Z,3.35
2017-05-02T00:17:49.790Z,3.34
2017-05-02T00:17:54.103Z,3.34
2017-05-02T00:17:58.538Z,3.35
2017-05-02T00:18:02.974Z,3.34
2017-05-02T00:18:07.293Z,3.34
2017-05-02T00:18:11.602Z,3.34
2017-05-02T00:18:15.805Z,3.35
2017-05-02T00:18:20.285Z,3.35
2017-05-02T00:18:24.600Z,3.34
2017-05-02T00:18:29.041Z,3.35
2017-05-02T00:18:33.477Z,3.35
2017-05-02T00:18:37.913Z,3.35
2017-05-02T00:18:42.347Z,3.35
2017-05-02T00:18:46.663Z,3.35
2017-05-02T00:18:51.090Z,3.34
2017-05-02T00:18:55.523Z,3.34
2017-05-02T00:18:59.732Z,3.35
2017-05-02T00:19:04.036Z,3.35
2017-05-02T00:19:08.228Z,3.34
2017-05-02T00:19:12.430Z,3.33
2017-05-02T00:19:16.752Z,3.34
2017-05-02T00:19:21.188Z,3.34
2017-05-02T00:19:25.638Z,3.33
2017-05-02T00:19:30.073Z,3.33
2017-05-02T00:19:34.501Z,3.34
2017-05-02T00:19:38.940Z,3.33
2017-05-02T00:19:43.366Z,3.34
2017-05-02T00:19:47.688Z,3.34
2017-05-02T00:19:52.008Z,3.33
2017-05-02T00:19:56.201Z,3.34
2017-05-02T00:20:00.540Z,3.35
2017-05-02T00:20:05.003Z,3.35
2017-05-02T00:20:09.309Z,3.35
2017-05-02T00:20:13.611Z,3.35
2017-05-02T00:20:18.057Z,3.35
2017-05-02T00:20:22.482Z,3.35
2017-05-02T00:20:26.796Z,3.36
2017-05-02T00:20:31.231Z,3.35
2017-05-02T00:20:35.664Z,3.35
2017-05-02T00:20:40.088Z,3.34
2017-05-02T00:20:44.512Z,3.35
2017-05-02T00:20:48.949Z,3.35
2017-05-02T00:20:53.163Z,3.34
2017-05-02T00:20:57.241Z,3.35
2017-05-02T00:21:01.881Z,3.34
2017-05-02T00:21:06.310Z,3.35
2017-05-02T00:21:10.626Z,3.34
2017-05-02T00:21:15.055Z,3.35
2017-05-02T00:21:19.493Z,3.35
2017-05-02T00:21:23.805Z,3.34
2017-05-02T00:21:28.231Z,3.34
2017-05-02T00:21:32.664Z,3.34
2017-05-02T00:21:37.095Z,3.35
2017-05-02T00:21:41.285Z,3.33
2017-05-02T00:21:45.593Z,3.33
2017-05-02T00:21:50.026Z,3.35
2017-05-02T00:21:54.458Z,3.34
2017-05-02T00:21:58.772Z,3.34
2017-05-02T00:22:03.199Z,3.34
2017-05-02T00:22:07.390Z,3.33
2017-05-02T00:22:11.816Z,3.34
2017-05-02T00:22:16.240Z,3.34
2017-05-02T00:22:20.663Z,3.34
2017-05-02T00:22:25.097Z,3.34
2017-05-02T00:22:29.420Z,3.34
2017-05-02T00:22:33.725Z,3.34
2017-05-02T00:22:38.154Z,3.34
2017-05-02T00:22:42.228Z,3.34
2017-05-02T00:22:46.657Z,3.34
2017-05-02T00:22:50.962Z,3.34
2017-05-02T00:22:55.388Z,3.34
2017-05-02T00:22:59.833Z,3.34
2017-05-02T00:23:04.203Z,3.34
2017-05-02T00:23:08.523Z,3.34
2017-05-02T00:23:12.958Z,3.35
2017-05-02T00:23:17.400Z,3.34
2017-05-02T00:23:21.830Z,3.35
2017-05-02T00:23:26.263Z,3.35
2017-05-02T00:23:30.698Z,3.36
2017-05-02T00:23:35.064Z,3.34
2017-05-02T00:23:39.494Z,3.36
2017-05-02T00:23:43.687Z,3.35
2017-05-02T00:23:48.119Z,3.35
2017-05-02T00:23:52.538Z,3.35
2017-05-02T00:23:56.962Z,3.36
2017-05-02T00:24:01.266Z,3.35
2017-05-02T00:24:05.697Z,3.36
2017-05-02T00:24:10.129Z,3.35
2017-05-02T00:24:14.560Z,3.35
2017-05-02T00:24:18.873Z,3.35
2017-05-02T00:24:23.298Z,3.35
2017-05-02T00:24:27.759Z,3.35
2017-05-02T00:24:32.179Z,3.36
2017-05-02T00:24:36.248Z,3.36
2017-05-02T00:24:40.719Z,3.36
2017-05-02T00:24:45.033Z,3.37
2017-05-02T00:24:49.339Z,3.36
2017-05-02T00:24:53.765Z,3.36
2017-05-02T00:24:58.244Z,3.36
2017-05-02T00:25:02.731Z,3.36
2017-05-02T00:25:07.156Z,3.36
2017-05-02T00:25:11.352Z,3.37
2017-05-02T00:25:15.697Z,3.36
2017-05-02T00:25:20.127Z,3.36
2017-05-02T00:25:24.547Z,3.36
2017-05-02T00:25:28.982Z,3.36
2017-05-02T00:25:33.413Z,3.36
2017-05-02T00:25:37.842Z,3.35
2017-05-02T00:25:42.154Z,3.36
2017-05-02T00:25:46.585Z,3.35
2017-05-02T00:25:51.021Z,3.35
2017-05-02T00:25:55.332Z,3.36
2017-05-02T00:25:59.775Z,3.35
2017-05-02T00:26:04.085Z,3.36
2017-05-02T00:26:08.511Z,3.36
2017-05-02T00:26:12.829Z,3.36
2017-05-02T00:26:17.265Z,3.36
2017-05-02T00:26:21.698Z,3.36
2017-05-02T00:26:26.121Z,3.36
2017-05-02T00:26:30.549Z,3.36
2017-05-02T00:26:35.030Z,3.35
2017-05-02T00:26:39.334Z,3.36
2017-05-02T00:26:43.761Z,3.35
2017-05-02T00:26:48.185Z,3.35
2017-05-02T00:26:52.508Z,3.35
2017-05-02T00:26:56.978Z,3.35
2017-05-02T00:27:01.406Z,3.35
2017-05-02T00:27:05.829Z,3.35
2017-05-02T00:27:10.040Z,3.35
2017-05-02T00:27:14.716Z,3.35
2017-05-02T00:27:19.140Z,3.35
2017-05-02T00:27:23.575Z,3.35
2017-05-02T00:27:28.007Z,3.35
2017-05-02T00:27:32.434Z,3.35
2017-05-02T00:27:36.865Z,3.35
2017-05-02T00:27:41.302Z,3.35
2017-05-02T00:27:45.738Z,3.35
2017-05-02T00:27:50.058Z,3.35
2017-05-02T00:27:54.481Z,3.35
2017-05-02T00:27:58.793Z,3.34
2017-05-02T00:28:03.227Z,3.35
2017-05-02T00:28:07.551Z,3.35
2017-05-02T00:28:11.979Z,3.34
2017-05-02T00:28:16.407Z,3.34
2017-05-02T00:28:20.722Z,3.34
2017-05-02T00:28:25.152Z,3.34
2017-05-02T00:28:29.590Z,3.34
2017-05-02T00:28:33.905Z,3.34
2017-05-02T00:28:38.348Z,3.35
2017-05-02T00:28:42.703Z,3.34
2017-05-02T00:28:47.127Z,3.35
2017-05-02T00:28:51.320Z,3.34
2017-05-02T00:28:55.745Z,3.35
2017-05-02T00:29:00.083Z,3.35
2017-05-02T00:29:04.283Z,3.34
2017-05-02T00:29:08.715Z,3.35
2017-05-02T00:29:13.047Z,3.35
2017-05-02T00:29:17.365Z,3.34
2017-05-02T00:29:21.802Z,3.34
2017-05-02T00:29:26.233Z,3.34
2017-05-02T00:29:30.666Z,3.34
2017-05-02T00:29:35.103Z,3.33
2017-05-02T00:29:39.419Z,3.33
2017-05-02T00:29:43.847Z,3.34
2017-05-02T00:29:48.276Z,3.34
2017-05-02T00:29:52.745Z,3.35
2017-05-02T00:29:56.950Z,3.34
2017-05-02T00:30:01.382Z,3.34
2017-05-02T00:30:05.695Z,3.34
2017-05-02T00:30:09.890Z,3.34
2017-05-02T00:30:14.199Z,3.34
2017-05-02T00:30:18.623Z,3.34
2017-05-02T00:30:23.057Z,3.34
2017-05-02T00:30:27.484Z,3.34
2017-05-02T00:30:31.908Z,3.34
2017-05-02T00:30:36.342Z,3.34
2017-05-02T00:30:40.775Z,3.33
2017-05-02T00:30:45.205Z,3.34
2017-05-02T00:30:49.630Z,3.33
2017-05-02T00:30:53.832Z,3.33
2017-05-02T00:30:58.271Z,3.33
2017-05-02T00:31:02.844Z,3.34
2017-05-02T00:31:07.272Z,3.34
2017-05-02T00:31:11.696Z,3.34
2017-05-02T00:31:16.015Z,3.34
2017-05-02T00:31:20.440Z,3.34
2017-05-02T00:31:24.867Z,3.35
2017-05-02T00:31:29.312Z,3.34
2017-05-02T00:31:33.736Z,3.34
2017-05-02T00:31:38.163Z,3.34
2017-05-02T00:31:42.479Z,3.34
2017-05-02T00:31:46.799Z,3.35
2017-05-02T00:31:51.225Z,3.35
2017-05-02T00:31:55.653Z,3.35
2017-05-02T00:32:00.113Z,3.35
2017-05-02T00:32:04.841Z,3.36
2017-05-02T00:32:09.169Z,3.35
2017-05-02T00:32:13.482Z,3.36
2017-05-02T00:32:17.917Z,3.37
2017-05-02T00:32:22.343Z,3.36
2017-05-02T00:32:26.539Z,3.35
2017-05-02T00:32:30.970Z,3.38
2017-05-02T00:32:35.293Z,3.36
2017-05-02T00:32:39.720Z,3.36
2017-05-02T00:32:43.912Z,3.37
2017-05-02T00:32:48.337Z,3.36
2017-05-02T00:32:52.650Z,3.35
2017-05-02T00:32:57.077Z,3.36
2017-05-02T00:33:01.511Z,3.37
2017-05-02T00:33:05.923Z,3.35
2017-05-02T00:33:10.123Z,3.35
2017-05-02T00:33:14.443Z,3.36
2017-05-02T00:33:18.868Z,3.35
2017-05-02T00:33:23.301Z,3.35
2017-05-02T00:33:27.628Z,3.35
2017-05-02T00:33:32.069Z,3.35
2017-05-02T00:33:36.142Z,3.36
2017-05-02T00:33:40.453Z,3.37
2017-05-02T00:33:44.894Z,3.36
2017-05-02T00:33:49.324Z,3.36
2017-05-02T00:33:53.747Z,3.37
2017-05-02T00:33:58.190Z,3.36
2017-05-02T00:34:02.635Z,3.37
2017-05-02T00:34:07.077Z,3.37
2017-05-02T00:34:11.504Z,3.36
2017-05-02T00:34:15.829Z,3.36
2017-05-02T00:34:20.273Z,3.37
2017-05-02T00:34:24.584Z,3.37
2017-05-02T00:34:29.012Z,3.38
2017-05-02T00:34:33.442Z,3.37
2017-05-02T00:34:37.756Z,3.36
2017-05-02T00:34:42.062Z,3.38
2017-05-02T00:34:46.484Z,3.37
2017-05-02T00:34:50.921Z,3.37
2017-05-02T00:34:55.359Z,3.38
2017-05-02T00:34:59.791Z,3.37
2017-05-02T00:35:04.104Z,3.37
2017-05-02T00:35:08.413Z,3.36
2017-05-02T00:35:12.633Z,3.37
2017-05-02T00:35:17.055Z,3.37
2017-05-02T00:35:21.483Z,3.36
2017-05-02T00:35:25.795Z,3.37
2017-05-02T00:35:30.223Z,3.38
2017-05-02T00:35:34.535Z,3.37
2017-05-02T00:35:38.963Z,3.37
2017-05-02T00:35:43.390Z,3.37
2017-05-02T00:35:47.823Z,3.37
2017-05-02T00:35:52.249Z,3.37
2017-05-02T00:35:56.676Z,3.39
2017-05-02T00:36:01.105Z,3.39
2017-05-02T00:36:05.795Z,3.39
2017-05-02T00:36:10.110Z,3.39
2017-05-02T00:36:14.183Z,3.4
2017-05-02T00:36:18.498Z,3.39
2017-05-02T00:36:22.697Z,3.4
2017-05-02T00:36:27.123Z,3.4
2017-05-02T00:36:31.550Z,3.39
2017-05-02T00:36:35.986Z,3.4
2017-05-02T00:36:40.416Z,3.4
2017-05-02T00:36:44.849Z,3.4
2017-05-02T00:36:49.274Z,3.39
2017-05-02T00:36:53.702Z,3.39
2017-05-02T00:36:58.134Z,3.4
2017-05-02T00:37:02.563Z,3.39
2017-05-02T00:37:06.987Z,3.4
2017-05-02T00:37:11.421Z,3.4
2017-05-02T00:37:15.616Z,3.41
2017-05-02T00:37:20.044Z,3.42
2017-05-02T00:37:24.469Z,3.41
2017-05-02T00:37:28.893Z,3.41
2017-05-02T00:37:33.330Z,3.41
2017-05-02T00:37:37.764Z,3.41
2017-05-02T00:37:41.971Z,3.42
2017-05-02T00:37:46.412Z,3.41
2017-05-02T00:37:50.850Z,3.42
2017-05-02T00:37:55.276Z,3.42
2017-05-02T00:37:59.720Z,3.41
2017-05-02T00:38:04.130Z,3.41
2017-05-02T00:38:08.337Z,3.42
2017-05-02T00:38:12.535Z,3.42
2017-05-02T00:38:16.853Z,3.41
2017-05-02T00:38:21.284Z,3.42
2017-05-02T00:38:25.725Z,3.42
2017-05-02T00:38:30.151Z,3.42
2017-05-02T00:38:34.470Z,3.42
2017-05-02T00:38:38.913Z,3.42
2017-05-02T00:38:43.352Z,3.42
2017-05-02T00:38:47.779Z,3.42
2017-05-02T00:38:52.096Z,3.41
2017-05-02T00:38:56.524Z,3.42
2017-05-02T00:39:00.963Z,3.42
2017-05-02T00:39:05.394Z,3.42
2017-05-02T00:39:09.819Z,3.41
2017-05-02T00:39:14.251Z,3.42
2017-05-02T00:39:18.741Z,3.41
2017-05-02T00:39:23.169Z,3.42
2017-05-02T00:39:27.614Z,3.41
2017-05-02T00:39:32.047Z,3.42
2017-05-02T00:39:36.511Z,3.42
2017-05-02T00:39:40.943Z,3.42
2017-05-02T00:39:45.371Z,3.43
2017-05-02T00:39:49.679Z,3.41
2017-05-02T00:39:54.106Z,3.42
2017-05-02T00:39:58.426Z,3.43
2017-05-02T00:40:02.738Z,3.43
2017-05-02T00:40:07.058Z,3.43
2017-05-02T00:40:11.367Z,3.42
2017-05-02T00:40:15.790Z,3.43
2017-05-02T00:40:20.213Z,3.43
2017-05-02T00:40:24.647Z,3.43
2017-05-02T00:40:29.111Z,3.43
2017-05-02T00:40:33.541Z,3.43
2017-05-02T00:40:37.969Z,3.44
2017-05-02T00:40:42.313Z,3.42
2017-05-02T00:40:46.628Z,3.43
2017-05-02T00:40:50.945Z,3.44
2017-05-02T00:40:55.388Z,3.43
2017-05-02T00:40:59.828Z,3.43
2017-05-02T00:41:04.141Z,3.43
2017-05-02T00:41:08.572Z,3.44
2017-05-02T00:41:12.890Z,3.43
2017-05-02T00:41:16.971Z,3.43
2017-05-02T00:41:21.393Z,3.43
2017-05-02T00:41:25.587Z,3.44
2017-05-02T00:41:30.017Z,3.45
2017-05-02T00:41:34.446Z,3.44
2017-05-02T00:41:38.873Z,3.45
2017-05-02T00:41:43.180Z,3.45
2017-05-02T00:41:47.611Z,3.45
2017-05-02T00:41:51.919Z,3.45
2017-05-02T00:41:56.357Z,3.45
2017-05-02T00:42:00.780Z,3.45
2017-05-02T00:42:05.370Z,3.45
2017-05-02T00:42:09.675Z,3.45
2017-05-02T00:42:13.981Z,3.45
2017-05-02T00:42:19.213Z,3.45
2017-05-02T00:42:23.649Z,3.45
2017-05-02T00:42:27.855Z,3.44
2017-05-02T00:42:32.276Z,3.45
2017-05-02T00:42:36.600Z,3.46
2017-05-02T00:42:40.911Z,3.46
2017-05-02T00:42:45.216Z,3.45
2017-05-02T00:42:49.657Z,3.46
2017-05-02T00:42:54.084Z,3.45
2017-05-02T00:42:58.518Z,3.46
2017-05-02T00:43:03.249Z,3.46
2017-05-02T00:43:07.678Z,3.46
2017-05-02T00:43:12.125Z,3.46
2017-05-02T00:43:16.445Z,3.46
2017-05-02T00:43:20.757Z,3.46
2017-05-02T00:43:25.082Z,3.46
2017-05-02T00:43:29.516Z,3.46
2017-05-02T00:43:33.835Z,3.45
2017-05-02T00:43:38.268Z,3.46
2017-05-02T00:43:42.460Z,3.45
2017-05-02T00:43:46.893Z,3.45
2017-05-02T00:43:51.322Z,3.46
2017-05-02T00:43:55.757Z,3.46
2017-05-02T00:44:00.072Z,3.46
2017-05-02T00:44:04.499Z,3.45
2017-05-02T00:44:08.858Z,3.46
2017-05-02T00:44:13.175Z,3.46
2017-05-02T00:44:17.367Z,3.46
2017-05-02T00:44:21.807Z,3.46
2017-05-02T00:44:26.235Z,3.46
2017-05-02T00:44:30.668Z,3.46
2017-05-02T00:44:35.091Z,3.46
2017-05-02T00:44:39.520Z,3.46
2017-05-02T00:44:43.832Z,3.46
2017-05-02T00:44:48.255Z,3.45
2017-05-02T00:44:52.561Z,3.46
2017-05-02T00:44:56.995Z,3.46
2017-05-02T00:45:01.465Z,3.46
2017-05-02T00:45:05.896Z,3.46
2017-05-02T00:45:09.969Z,3.47
2017-05-02T00:45:14.169Z,3.47
2017-05-02T00:45:18.598Z,3.46
2017-05-02T00:45:23.023Z,3.46
2017-05-02T00:45:27.451Z,3.46
2017-05-02T00:45:31.914Z,3.45
2017-05-02T00:45:36.345Z,3.46
2017-05-02T00:45:40.655Z,3.46
2017-05-02T00:45:45.096Z,3.46
2017-05-02T00:45:49.536Z,3.46
2017-05-02T00:45:53.963Z,3.46
2017-05-02T00:45:58.404Z,3.46
2017-05-02T00:46:02.827Z,3.45
2017-05-02T00:46:07.142Z,3.46
2017-05-02T00:46:11.335Z,3.46
2017-05-02T00:46:15.761Z,3.47
2017-05-02T00:46:20.184Z,3.46
2017-05-02T00:46:24.612Z,3.48
2017-05-02T00:46:29.077Z,3.46
2017-05-02T00:46:33.394Z,3.46
2017-05-02T00:46:37.581Z,3.46
2017-05-02T00:46:41.896Z,3.47
2017-05-02T00:46:46.216Z,3.47
2017-05-02T00:46:50.529Z,3.47
2017-05-02T00:46:54.957Z,3.47
2017-05-02T00:46:59.386Z,3.47
2017-05-02T00:47:03.753Z,3.47
2017-05-02T00:47:08.183Z,3.48
2017-05-02T00:47:12.375Z,3.48
2017-05-02T00:47:16.809Z,3.48
2017-05-02T00:47:21.535Z,3.47
2017-05-02T00:47:25.846Z,3.47
2017-05-02T00:47:30.274Z,3.48
2017-05-02T00:47:34.717Z,3.47
2017-05-02T00:47:39.144Z,3.47
2017-05-02T00:47:43.453Z,3.48
2017-05-02T00:47:47.884Z,3.48
2017-05-02T00:47:52.371Z,3.48
2017-05-02T00:47:56.796Z,3.47
2017-05-02T00:48:01.219Z,3.48
2017-05-02T00:48:05.652Z,3.47
2017-05-02T00:48:09.864Z,3.47
2017-05-02T00:48:14.183Z,3.47
2017-05-02T00:48:18.492Z,3.48
2017-05-02T00:48:22.922Z,3.48
2017-05-02T00:48:27.364Z,3.47
2017-05-02T00:48:31.795Z,3.47
2017-05-02T00:48:36.111Z,3.48
2017-05-02T00:48:40.541Z,3.47
2017-05-02T00:48:44.859Z,3.48
2017-05-02T00:48:49.293Z,3.48
2017-05-02T00:48:53.731Z,3.49
2017-05-02T00:48:58.158Z,3.49
2017-05-02T00:49:02.670Z,3.49
2017-05-02T00:49:07.104Z,3.49
2017-05-02T00:49:11.414Z,3.49
2017-05-02T00:49:15.855Z,3.49
2017-05-02T00:49:20.301Z,3.49
2017-05-02T00:49:24.728Z,3.5
2017-05-02T00:49:29.148Z,3.49
2017-05-02T00:49:33.460Z,3.49
2017-05-02T00:49:37.891Z,3.49
2017-05-02T00:49:42.312Z,3.49
2017-05-02T00:49:46.733Z,3.49
2017-05-02T00:49:51.161Z,3.49
2017-05-02T00:49:55.510Z,3.48
2017-05-02T00:49:59.934Z,3.49
2017-05-02T00:50:04.539Z,3.48
2017-05-02T00:50:08.980Z,3.48
2017-05-02T00:50:13.324Z,3.49
2017-05-02T00:50:17.752Z,3.49
2017-05-02T00:50:22.191Z,3.49
2017-05-02T00:50:26.535Z,3.5
2017-05-02T00:50:30.964Z,3.5
2017-05-02T00:50:35.269Z,3.49
2017-05-02T00:50:39.578Z,3.5
2017-05-02T00:50:44.009Z,3.5
2017-05-02T00:50:48.442Z,3.51
2017-05-02T00:50:52.746Z,3.5
2017-05-02T00:50:57.172Z,3.5
2017-05-02T00:51:01.603Z,3.51
2017-05-02T00:51:06.031Z,3.51
2017-05-02T00:51:10.338Z,3.51
2017-05-02T00:51:14.769Z,3.51
2017-05-02T00:51:19.086Z,3.52
2017-05-02T00:51:23.534Z,3.51
2017-05-02T00:51:27.957Z,3.52
2017-05-02T00:51:32.387Z,3.52
2017-05-02T00:51:36.822Z,3.53
2017-05-02T00:51:41.285Z,3.53
2017-05-02T00:51:45.710Z,3.53
2017-05-02T00:51:50.149Z,3.52
2017-05-02T00:51:54.576Z,3.52
2017-05-02T00:51:59.011Z,3.53
2017-05-02T00:52:03.487Z,3.54
2017-05-02T00:52:07.832Z,3.53
2017-05-02T00:52:12.268Z,3.53
2017-05-02T00:52:16.582Z,3.54
2017-05-02T00:52:21.010Z,3.54
2017-05-02T00:52:25.472Z,3.54
2017-05-02T00:52:29.908Z,3.54
2017-05-02T00:52:34.342Z,3.55
2017-05-02T00:52:38.661Z,3.55
2017-05-02T00:52:42.984Z,3.55
2017-05-02T00:52:47.411Z,3.55
2017-05-02T00:52:51.841Z,3.54
2017-05-02T00:52:56.265Z,3.55
2017-05-02T00:53:00.710Z,3.55
2017-05-02T00:53:05.242Z,3.54
2017-05-02T00:53:09.552Z,3.54
2017-05-02T00:53:13.985Z,3.55
2017-05-02T00:53:18.428Z,3.55
2017-05-02T00:53:22.857Z,3.54
2017-05-02T00:53:27.292Z,3.54
2017-05-02T00:53:31.725Z,3.55
2017-05-02T00:53:36.163Z,3.55
2017-05-02T00:53:40.475Z,3.55
2017-05-02T00:53:44.807Z,3.54
2017-05-02T00:53:49.234Z,3.56
2017-05-02T00:53:53.675Z,3.55
2017-05-02T00:53:58.113Z,3.56
2017-05-02T00:54:02.637Z,3.56
2017-05-02T00:54:06.949Z,3.55
2017-05-02T00:54:11.149Z,3.55
2017-05-02T00:54:15.586Z,3.55
2017-05-02T00:54:20.018Z,3.55
2017-05-02T00:54:24.461Z,3.55
2017-05-02T00:54:28.946Z,3.55
2017-05-02T00:54:33.374Z,3.55
2017-05-02T00:54:37.691Z,3.56
2017-05-02T00:54:41.996Z,3.55
2017-05-02T00:54:46.428Z,3.56
2017-05-02T00:54:50.854Z,3.56
2017-05-02T00:54:55.273Z,3.55
2017-05-02T00:54:59.476Z,3.56
2017-05-02T00:55:04.089Z,3.56
2017-05-02T00:55:08.403Z,3.55
2017-05-02T00:55:12.826Z,3.56
2017-05-02T00:55:17.260Z,3.56
2017-05-02T00:55:21.730Z,3.56
2017-05-02T00:55:26.148Z,3.56
2017-05-02T00:55:30.579Z,3.56
2017-05-02T00:55:34.896Z,3.56
2017-05-02T00:55:39.360Z,3.56
2017-05-02T00:55:43.787Z,3.56
2017-05-02T00:55:48.218Z,3.56
2017-05-02T00:55:52.574Z,3.56
2017-05-02T00:55:57.005Z,3.57
2017-05-02T00:56:01.435Z,3.56
2017-05-02T00:56:05.861Z,3.56
2017-05-02T00:56:10.166Z,3.57
2017-05-02T00:56:14.358Z,3.56
2017-05-02T00:56:18.789Z,3.56
2017-05-02T00:56:23.219Z,3.56
2017-05-02T00:56:27.648Z,3.56
2017-05-02T00:56:32.074Z,3.57
2017-05-02T00:56:36.517Z,3.55
2017-05-02T00:56:40.590Z,3.56
2017-05-02T00:56:45.041Z,3.57
2017-05-02T00:56:49.347Z,3.56
2017-05-02T00:56:53.778Z,3.56
2017-05-02T00:56:58.202Z,3.56
2017-05-02T00:57:02.628Z,3.56
2017-05-02T00:57:06.938Z,3.56
2017-05-02T00:57:11.377Z,3.56
2017-05-02T00:57:15.810Z,3.56
2017-05-02T00:57:20.489Z,3.56
2017-05-02T00:57:24.928Z,3.57
2017-05-02T00:57:29.355Z,3.57
2017-05-02T00:57:33.778Z,3.56
2017-05-02T00:57:38.212Z,3.56
2017-05-02T00:57:42.412Z,3.57
2017-05-02T00:57:46.847Z,3.56
2017-05-02T00:57:51.277Z,3.57
2017-05-02T00:57:55.708Z,3.56
2017-05-02T00:58:00.135Z,3.56
2017-05-02T00:58:04.611Z,3.58
2017-05-02T00:58:08.806Z,3.57
2017-05-02T00:58:13.127Z,3.57
2017-05-02T00:58:17.322Z,3.58
2017-05-02T00:58:21.802Z,3.57
2017-05-02T00:58:26.242Z,3.57